Time;durP1;ratioP1;P1;durP2;ratioP2;P2;SDS_P1;SDS_P2;PMS_P1;PMS_P2;Temp;Humidity;BMP_temperature;BMP_pressure;BME280_temperature;BME280_humidity;BME280_pressure;Samples;Min_cycle;Max_cycle;Signal;HPM_P1;HPM_P2
2021/04/24 17:16:51;;;;;;;12.30;5.03;;;24.70;41.80;;;;;;5129872;27;20328;-74
2021/04/24 17:19:20;;;;;;;7.25;4.78;;;24.30;39.60;;;;;;5128394;28;20028;-74
2021/04/24 17:21:46;;;;;;;8.77;4.10;;;24.40;39.80;;;;;;5110396;28;20023;-73
2021/04/24 17:24:12;;;;;;;6.55;4.82;;;24.00;39.70;;;;;;5129916;27;20479;-73
2021/04/24 17:26:39;;;;;;;11.20;6.15;;;24.10;39.50;;;;;;5094088;28;20088;-73
2021/04/24 17:29:05;;;;;;;14.55;5.63;;;23.10;40.30;;;;;;5110490;28;20068;-72
2021/04/24 17:31:31;;;;;;;11.85;5.18;;;22.90;41.00;;;;;;5109684;28;20054;-72
2021/04/24 17:33:57;;;;;;;12.77;5.88;;;22.80;39.50;;;;;;5110173;28;20035;-72
2021/04/24 17:36:23;;;;;;;11.35;6.18;;;22.60;41.90;;;;;;5128837;28;20030;-72
2021/04/24 17:38:50;;;;;;;10.80;5.72;;;22.30;43.00;;;;;;5111069;27;20015;-72
2021/04/24 17:41:16;;;;;;;13.52;5.22;;;21.80;43.60;;;;;;5085921;28;20445;-72
2021/04/24 17:43:41;;;;;;;10.05;5.78;;;21.50;44.20;;;;;;5110678;28;20031;-73
2021/04/24 17:46:07;;;;;;;12.45;4.68;;;21.40;44.60;;;;;;5129143;27;20030;-72
2021/04/24 17:48:33;;;;;;;12.73;5.97;;;21.00;45.60;;;;;;5131072;27;20027;-73
2021/04/24 17:51:00;;;;;;;12.15;6.88;;;20.70;46.60;;;;;;5113308;28;20390;-72
2021/04/24 17:53:26;;;;;;;13.18;5.57;;;20.50;46.80;;;;;;5096300;27;20049;-73
2021/04/24 17:55:51;;;;;;;11.32;5.10;;;20.40;47.30;;;;;;5132617;28;20019;-72
2021/04/24 17:58:17;;;;;;;14.85;6.50;;;20.50;47.50;;;;;;5131752;27;20016;-73
2021/04/24 18:00:46;;;;;;;15.85;8.82;;;20.00;48.00;;;;;;5128775;27;20020;-74
2021/04/24 18:03:11;;;;;;;18.17;9.40;;;19.60;48.90;;;;;;5123140;27;20369;-74
2021/04/24 18:05:37;;;;;;;21.00;10.05;;;19.20;49.80;;;;;;5082797;28;20034;-74
2021/04/24 18:08:03;;;;;;;21.30;11.38;;;18.60;50.70;;;;;;5123833;28;20036;-74
2021/04/24 18:10:29;;;;;;;15.93;9.18;;;18.10;51.80;;;;;;5104765;28;20036;-74
2021/04/24 18:12:55;;;;;;;12.95;4.75;;;17.70;52.90;;;;;;5123700;27;20130;-74
2021/04/24 18:15:24;;;;;;;10.30;4.57;;;17.60;53.50;;;;;;5105148;28;20050;-74
2021/04/24 18:17:50;;;;;;;9.23;4.55;;;17.10;52.40;;;;;;5108620;28;20031;-74
2021/04/24 18:20:17;;;;;;;11.23;4.75;;;17.20;54.20;;;;;;5109009;28;20040;-73
2021/04/24 18:22:45;;;;;;;13.02;4.60;;;16.60;55.00;;;;;;5124281;27;20027;-74
2021/04/24 18:25:11;;;;;;;10.80;4.50;;;16.50;53.80;;;;;;5105137;28;20135;-74
2021/04/24 18:27:37;;;;;;;11.32;4.28;;;16.20;55.50;;;;;;5095927;28;20047;-73
2021/04/24 18:30:11;;;;;;;10.30;4.25;;;16.00;55.90;;;;;;5112903;28;20019;-73
2021/04/24 18:32:37;;;;;;;8.73;3.75;;;15.90;56.30;;;;;;5111843;28;20413;-74
2021/04/24 18:35:03;;;;;;;8.55;3.78;;;15.80;56.80;;;;;;5095206;28;20032;-73
2021/04/24 18:37:30;;;;;;;9.38;4.70;;;15.60;57.00;;;;;;5113985;28;20024;-74
2021/04/24 18:39:56;;;;;;;15.05;4.47;;;15.70;57.80;;;;;;5113145;28;20024;-74
2021/04/24 18:42:21;;;;;;;11.10;4.47;;;15.50;58.30;;;;;;5094900;28;20020;-74
2021/04/24 18:44:48;;;;;;;8.00;3.63;;;15.20;58.60;;;;;;5113891;28;20043;-74
2021/04/24 18:47:14;;;;;;;10.98;4.03;;;15.00;59.00;;;;;;5093030;28;20027;-74
2021/04/24 18:49:40;;;;;;;11.15;3.72;;;15.20;59.50;;;;;;5093642;28;20189;-75
2021/04/24 18:52:06;;;;;;;6.75;3.10;;;14.80;59.70;;;;;;5114983;28;20040;-73
2021/04/24 18:54:32;;;;;;;8.55;3.72;;;14.90;59.80;;;;;;5114579;28;20023;-74
2021/04/24 18:56:57;;;;;;;8.13;3.67;;;14.70;60.50;;;;;;5114195;28;20119;-73
2021/04/24 18:59:26;;;;;;;8.77;3.85;;;14.40;60.60;;;;;;5095623;28;20031;-74
2021/04/24 19:01:53;;;;;;;7.60;3.42;;;14.40;61.10;;;;;;5126633;27;20663;-73
2021/04/24 19:04:19;;;;;;;6.22;2.90;;;14.20;60.10;;;;;;5101444;28;20498;-73
2021/04/24 19:06:44;;;;;;;7.57;3.20;;;14.20;61.60;;;;;;5110109;28;20101;-73
2021/04/24 19:09:10;;;;;;;6.82;3.35;;;14.30;61.80;;;;;;5113090;28;20039;-72
2021/04/24 19:11:37;;;;;;;7.30;3.63;;;13.90;61.80;;;;;;5094263;28;20032;-73
2021/04/24 19:14:06;;;;;;;6.22;3.50;;;13.80;62.30;;;;;;5113854;28;20135;-73
2021/04/24 19:16:31;;;;;;;8.63;3.25;;;14.10;62.90;;;;;;5095470;28;20121;-72
2021/04/24 19:18:58;;;;;;;5.85;3.20;;;13.60;62.90;;;;;;5095389;28;20476;-72
2021/04/24 19:21:26;;;;;;;7.32;3.30;;;13.40;63.90;;;;;;5094874;28;20479;-72
2021/04/24 19:23:54;;;;;;;6.45;2.95;;;13.20;62.70;;;;;;5113169;28;20020;-72
2021/04/24 19:26:20;;;;;;;6.43;3.22;;;12.90;63.50;;;;;;5110607;27;20024;-72
2021/04/24 19:28:46;;;;;;;6.85;3.40;;;13.00;66.10;;;;;;5112073;28;20032;-73
2021/04/24 19:31:11;;;;;;;6.38;3.25;;;12.70;66.80;;;;;;5112486;28;20115;-73
2021/04/24 19:33:37;;;;;;;7.80;3.42;;;12.80;67.90;;;;;;5094682;28;20032;-72
2021/04/24 19:36:03;;;;;;;6.32;2.97;;;12.30;68.30;;;;;;5113125;28;20058;-72
2021/04/24 19:38:29;;;;;;;7.65;3.47;;;12.20;68.20;;;;;;5111635;28;20445;-73
2021/04/24 19:40:55;;;;;;;9.25;3.47;;;12.20;69.10;;;;;;5112234;28;20460;-72
2021/04/24 19:43:21;;;;;;;5.22;3.10;;;12.10;70.30;;;;;;5094909;28;20055;-72
2021/04/24 19:45:49;;;;;;;6.72;3.20;;;11.60;70.40;;;;;;5093746;28;20092;-72
2021/04/24 19:48:14;;;;;;;10.73;3.63;;;11.40;72.10;;;;;;5112942;28;20042;-72
2021/04/24 19:50:41;;;;;;;5.05;2.97;;;11.50;72.50;;;;;;5112776;28;20023;-72
2021/04/24 19:53:08;;;;;;;7.53;2.90;;;11.50;73.20;;;;;;5094253;28;20058;-73
2021/04/24 19:55:34;;;;;;;4.90;2.78;;;11.50;74.30;;;;;;5112855;28;20031;-72
2021/04/24 19:58:00;;;;;;;5.65;2.97;;;11.50;74.30;;;;;;5112624;28;20023;-73
2021/04/24 20:00:30;;;;;;;8.23;3.20;;;11.60;74.20;;;;;;5110649;28;20016;-72
2021/04/24 20:02:57;;;;;;;5.50;2.92;;;11.60;73.20;;;;;;5112177;28;20128;-72
2021/04/24 20:05:29;;;;;;;5.22;2.80;;;11.50;75.60;;;;;;5095921;27;20038;-73
2021/04/24 20:07:55;;;;;;;5.78;2.88;;;12.20;76.40;;;;;;5094462;28;20043;-72
2021/04/24 20:10:21;;;;;;;5.85;2.75;;;11.40;77.20;;;;;;5093974;28;20027;-72
2021/04/24 20:12:47;;;;;;;5.97;3.00;;;11.40;78.60;;;;;;5112006;28;20028;-73
2021/04/24 20:15:15;;;;;;;10.45;5.97;;;11.30;80.00;;;;;;5094070;28;20046;-72
2021/04/24 20:17:41;;;;;;;5.63;3.22;;;11.10;82.60;;;;;;5111739;28;20043;-72
2021/04/24 20:20:08;;;;;;;6.35;2.58;;;11.00;84.60;;;;;;5111316;28;20507;-72
2021/04/24 20:22:35;;;;;;;5.60;2.55;;;11.00;84.70;;;;;;5094371;28;20078;-73
2021/04/24 20:25:00;;;;;;;5.80;2.58;;;11.00;85.60;;;;;;5094006;28;20523;-73
2021/04/24 20:27:26;;;;;;;5.47;3.20;;;10.90;85.80;;;;;;5092923;28;20081;-72
2021/04/24 20:29:52;;;;;;;5.45;2.85;;;10.80;88.80;;;;;;5111513;28;20083;-72
2021/04/24 20:32:20;;;;;;;11.35;4.03;;;10.50;91.90;;;;;;5088070;28;20495;-73
2021/04/24 20:34:46;;;;;;;16.15;8.63;;;11.00;95.20;;;;;;5093653;28;20028;-71
2021/04/24 20:37:12;;;;;;;10.43;5.40;;;10.60;97.10;;;;;;5093617;28;20035;-73
2021/04/24 20:39:38;;;;;;;15.80;5.18;;;10.40;99.20;;;;;;5111101;28;20452;-71
2021/04/24 20:42:05;;;;;;;12.10;4.43;;;10.30;99.90;;;;;;5112016;28;20028;-73
2021/04/24 20:44:31;;;;;;;12.23;4.68;;;10.20;99.90;;;;;;5110755;28;20036;-73
2021/04/24 20:46:57;;;;;;;12.13;4.20;;;10.30;99.90;;;;;;5111925;28;20012;-73
2021/04/24 20:49:23;;;;;;;12.02;4.15;;;10.70;99.90;;;;;;5111531;28;20059;-72
2021/04/24 20:51:48;;;;;;;9.65;4.10;;;9.90;99.90;;;;;;5089660;28;20049;-73
2021/04/24 20:54:14;;;;;;;8.27;3.97;;;10.20;99.90;;;;;;5104986;22;20101;-71
2021/04/24 20:56:40;;;;;;;9.93;4.30;;;10.80;99.90;;;;;;5071752;28;20481;-72
2021/04/24 20:59:06;;;;;;;8.55;4.55;;;10.10;99.90;;;;;;5053095;28;20067;-72
2021/04/24 21:01:32;;;;;;;13.68;5.35;;;9.80;99.90;;;;;;5053128;28;20052;-70
2021/04/24 21:03:58;;;;;;;9.30;4.75;;;9.00;99.90;;;;;;5071863;28;20044;-70
2021/04/24 21:06:23;;;;;;;16.40;5.80;;;9.30;99.90;;;;;;5045848;28;20564;-69
2021/04/24 21:08:52;;;;;;;11.23;4.80;;;8.70;99.90;;;;;;5045518;28;20120;-69
2021/04/24 21:11:17;;;;;;;10.23;4.43;;;8.60;99.90;;;;;;5071051;28;20104;-69
2021/04/24 21:13:43;;;;;;;14.40;5.13;;;8.70;99.90;;;;;;5070769;28;20472;-71
2021/04/24 21:16:09;;;;;;;17.42;5.75;;;8.80;99.90;;;;;;5052923;28;20037;-73
2021/04/24 21:18:41;;;;;;;13.30;5.72;;;9.10;99.90;;;;;;5072891;28;20413;-72
2021/04/24 21:21:07;;;;;;;13.60;5.50;;;8.60;99.90;;;;;;5071909;28;20511;-72
2021/04/24 21:23:32;;;;;;;11.00;5.10;;;8.70;99.90;;;;;;5053127;28;20059;-72
2021/04/24 21:25:59;;;;;;;16.23;7.10;;;8.60;99.90;;;;;;5064591;28;20468;-73
2021/04/24 21:28:25;;;;;;;10.20;5.45;;;8.40;99.90;;;;;;5070126;28;20039;-73
2021/04/24 21:30:51;;;;;;;14.48;5.28;;;9.00;99.90;;;;;;5052538;28;20032;-72
2021/04/24 21:33:17;;;;;;;13.15;5.18;;;8.40;99.90;;;;;;5053264;28;20051;-72
2021/04/24 21:35:43;;;;;;;11.23;4.40;;;9.20;99.90;;;;;;5069986;28;20485;-73
2021/04/24 21:38:09;;;;;;;9.27;4.18;;;8.30;99.90;;;;;;5071163;28;20025;-73
2021/04/24 21:40:34;;;;;;;8.98;3.70;;;8.30;99.90;;;;;;5068894;28;20478;-72
2021/04/24 21:43:02;;;;;;;7.95;3.88;;;7.80;99.90;;;;;;5052080;28;20025;-71
2021/04/24 21:45:28;;;;;;;6.57;3.85;;;;;;;;;;5070679;28;20064;-72
2021/04/24 21:47:55;;;;;;;8.93;3.63;;;;;;;;;;5071032;28;20035;-71
2021/04/24 21:50:21;;;;;;;6.82;3.40;;;;;;;;;;5069580;28;20108;-73
2021/04/24 21:52:47;;;;;;;9.65;4.03;;;;;;;;;;5070768;28;20059;-72
2021/04/24 21:55:15;;;;;;;7.80;3.72;;;;;;;;;;5052971;28;20040;-73
2021/04/24 21:57:41;;;;;;;6.30;3.65;;;;;;;;;;5050584;28;20024;-72
2021/04/24 22:00:27;;;;;;;5.72;3.05;;;;;;;;;;5050211;28;20021;-72
2021/04/24 22:02:54;;;;;;;12.13;5.72;;;;;;;;;;5055689;28;20039;-72
2021/04/24 22:05:20;;;;;;;20.38;9.98;;;;;;;;;;5056908;28;20112;-72
2021/04/24 22:07:46;;;;;;;18.88;11.23;;;;;;;;;;5072885;28;20056;-72
2021/04/24 22:10:12;;;;;;;8.43;4.75;;;;;;;;;;5052473;28;20021;-72
2021/04/24 22:12:38;;;;;;;6.15;3.45;;;;;;;;;;5058621;28;20104;-72
2021/04/24 22:15:05;;;;;;;6.90;3.78;;;8.00;99.90;;;;;;5073997;28;20064;-72
2021/04/24 22:17:32;;;;;;;7.45;3.15;;;7.30;99.90;;;;;;5054326;28;20505;-72
2021/04/24 22:19:57;;;;;;;6.25;3.45;;;7.50;99.90;;;;;;5054330;28;20401;-72
2021/04/24 22:22:23;;;;;;;7.95;3.40;;;7.90;99.90;;;;;;5055103;28;20025;-71
2021/04/24 22:24:49;;;;;;;8.77;3.58;;;7.40;99.90;;;;;;5067684;28;20481;-72
2021/04/24 22:27:14;;;;;;;6.40;3.78;;;7.10;99.90;;;;;;5073987;28;20060;-72
2021/04/24 22:29:41;;;;;;;7.40;3.40;;;7.10;99.90;;;;;;5072091;28;20032;-72
2021/04/24 22:32:07;;;;;;;8.45;3.92;;;7.60;99.90;;;;;;5056190;28;20500;-72
2021/04/24 22:34:32;;;;;;;7.32;3.80;;;6.90;99.90;;;;;;5059984;28;20028;-72
2021/04/24 22:36:58;;;;;;;7.50;4.13;;;6.70;99.90;;;;;;5073945;28;20029;-72
2021/04/24 22:39:23;;;;;;;7.20;3.85;;;7.20;99.90;;;;;;5055560;28;20021;-72
2021/04/24 22:41:49;;;;;;;5.60;3.13;;;6.50;99.90;;;;;;5055581;28;20032;-71
2021/04/24 22:44:15;;;;;;;11.07;4.53;;;6.30;99.90;;;;;;5073307;28;20392;-72
2021/04/24 22:46:40;;;;;;;8.45;4.30;;;6.40;99.90;;;;;;5073443;28;20036;-72
2021/04/24 22:49:06;;;;;;;8.43;4.40;;;6.30;99.90;;;;;;5041591;28;20024;-72
2021/04/24 22:51:32;;;;;;;7.65;3.53;;;6.40;99.90;;;;;;5052188;28;20036;-71
2021/04/24 22:54:00;;;;;;;10.07;4.85;;;6.60;99.90;;;;;;5054031;28;20047;-72
2021/04/24 22:56:26;;;;;;;7.90;3.88;;;6.90;99.90;;;;;;5054263;28;20493;-72
2021/04/24 22:58:51;;;;;;;8.95;4.18;;;6.20;99.90;;;;;;5053820;28;20120;-72
2021/04/24 23:01:17;;;;;;;9.50;4.13;;;6.10;99.90;;;;;;5054013;28;20025;-72
2021/04/24 23:03:42;;;;;;;10.00;3.80;;;6.30;99.90;;;;;;5071642;28;20090;-72
2021/04/24 23:06:08;;;;;;;7.10;3.88;;;6.50;99.90;;;;;;5055665;28;20055;-72
2021/04/24 23:08:34;;;;;;;9.25;3.78;;;6.50;99.90;;;;;;5073157;28;20486;-72
2021/04/24 23:10:59;;;;;;;8.75;3.67;;;6.10;99.90;;;;;;5073251;28;20036;-72
2021/04/24 23:13:25;;;;;;;8.77;3.80;;;6.00;99.90;;;;;;5038599;28;20070;-72
